sensor_id;sensor_type;location;lat;lon;timestamp;temperature;humidity
23609;DHT22;11982;50.810;4.442;2023-08-06T00:00:26;15.10;99.90
23609;DHT22;11982;50.810;4.442;2023-08-06T00:02:51;15.00;99.90
23609;DHT22;11982;50.810;4.442;2023-08-06T00:05:17;15.10;99.90
23609;DHT22;11982;50.810;4.442;2023-08-06T00:07:48;15.10;99.90
23609;DHT22;11982;50.810;4.442;2023-08-06T00:10:14;15.10;99.90
23609;DHT22;11982;50.810;4.442;2023-08-06T00:12:39;15.10;99.90
23609;DHT22;11982;50.810;4.442;2023-08-06T00:15:05;15.00;99.90
23609;DHT22;11982;50.810;4.442;2023-08-06T00:17:31;15.20;99.90
23609;DHT22;11982;50.810;4.442;2023-08-06T00:19:57;15.20;99.90
23609;DHT22;11982;50.810;4.442;2023-08-06T00:22:23;15.10;99.90
23609;DHT22;11982;50.810;4.442;2023-08-06T00:24:48;15.10;99.90
23609;DHT22;11982;50.810;4.442;2023-08-06T00:27:14;15.00;99.90
23609;DHT22;11982;50.810;4.442;2023-08-06T00:29:40;15.00;99.90
23609;DHT22;11982;50.810;4.442;2023-08-06T00:32:05;15.00;99.90
23609;DHT22;11982;50.810;4.442;2023-08-06T00:34:31;15.00;99.90
23609;DHT22;11982;50.810;4.442;2023-08-06T00:36:57;14.90;99.90
23609;DHT22;11982;50.810;4.442;2023-08-06T00:39:22;14.90;99.90
23609;DHT22;11982;50.810;4.442;2023-08-06T00:41:48;14.80;99.90
23609;DHT22;11982;50.810;4.442;2023-08-06T00:44:14;14.90;99.90
23609;DHT22;11982;50.810;4.442;2023-08-06T00:46:40;14.90;99.90
23609;DHT22;11982;50.810;4.442;2023-08-06T00:49:06;14.80;99.90
23609;DHT22;11982;50.810;4.442;2023-08-06T00:51:32;14.80;99.90
23609;DHT22;11982;50.810;4.442;2023-08-06T00:53:58;14.80;99.90
23609;DHT22;11982;50.810;4.442;2023-08-06T00:56:24;14.90;99.90
23609;DHT22;11982;50.810;4.442;2023-08-06T00:58:51;14.90;99.90
23609;DHT22;11982;50.810;4.442;2023-08-06T01:01:16;14.90;99.90
23609;DHT22;11982;50.810;4.442;2023-08-06T01:03:42;14.80;99.90
23609;DHT22;11982;50.810;4.442;2023-08-06T01:06:08;14.80;99.90
23609;DHT22;11982;50.810;4.442;2023-08-06T01:08:54;14.80;99.90
23609;DHT22;11982;50.810;4.442;2023-08-06T01:14:23;14.80;99.90
23609;DHT22;11982;50.810;4.442;2023-08-06T01:16:53;14.80;99.90
23609;DHT22;11982;50.810;4.442;2023-08-06T01:19:21;14.80;99.90
23609;DHT22;11982;50.810;4.442;2023-08-06T01:21:46;14.80;99.90
23609;DHT22;11982;50.810;4.442;2023-08-06T01:24:13;14.80;99.90
23609;DHT22;11982;50.810;4.442;2023-08-06T01:29:41;14.70;99.90
23609;DHT22;11982;50.810;4.442;2023-08-06T01:32:10;14.70;99.90
23609;DHT22;11982;50.810;4.442;2023-08-06T01:34:39;14.60;99.90
23609;DHT22;11982;50.810;4.442;2023-08-06T01:37:06;14.60;99.90
23609;DHT22;11982;50.810;4.442;2023-08-06T01:39:33;14.60;99.90
23609;DHT22;11982;50.810;4.442;2023-08-06T01:41:59;14.60;99.90
23609;DHT22;11982;50.810;4.442;2023-08-06T01:44:25;14.70;99.90
23609;DHT22;11982;50.810;4.442;2023-08-06T01:46:51;14.70;99.90
23609;DHT22;11982;50.810;4.442;2023-08-06T01:49:16;14.70;99.90
23609;DHT22;11982;50.810;4.442;2023-08-06T01:51:42;14.60;99.90
23609;DHT22;11982;50.810;4.442;2023-08-06T01:54:08;14.60;99.90
23609;DHT22;11982;50.810;4.442;2023-08-06T01:56:33;14.60;99.90
23609;DHT22;11982;50.810;4.442;2023-08-06T01:58:59;14.60;99.90
23609;DHT22;11982;50.810;4.442;2023-08-06T02:01:25;14.60;99.90
23609;DHT22;11982;50.810;4.442;2023-08-06T02:03:50;14.60;99.90
23609;DHT22;11982;50.810;4.442;2023-08-06T02:06:16;14.60;99.90
23609;DHT22;11982;50.810;4.442;2023-08-06T02:08:42;14.60;99.90
23609;DHT22;11982;50.810;4.442;2023-08-06T02:11:08;14.60;99.90
23609;DHT22;11982;50.810;4.442;2023-08-06T02:13:33;14.50;99.90
23609;DHT22;11982;50.810;4.442;2023-08-06T02:15:59;14.50;99.90
23609;DHT22;11982;50.810;4.442;2023-08-06T02:18:25;14.50;99.90
23609;DHT22;11982;50.810;4.442;2023-08-06T02:21:00;14.50;99.90
23609;DHT22;11982;50.810;4.442;2023-08-06T02:23:26;14.50;99.90
23609;DHT22;11982;50.810;4.442;2023-08-06T02:26:02;14.50;99.90
23609;DHT22;11982;50.810;4.442;2023-08-06T02:28:29;14.50;99.90
23609;DHT22;11982;50.810;4.442;2023-08-06T02:30:54;14.50;99.90
23609;DHT22;11982;50.810;4.442;2023-08-06T02:33:20;14.60;99.90
23609;DHT22;11982;50.810;4.442;2023-08-06T02:35:46;14.60;99.90
23609;DHT22;11982;50.810;4.442;2023-08-06T02:38:12;14.60;99.90
23609;DHT22;11982;50.810;4.442;2023-08-06T02:40:46;14.60;99.90
23609;DHT22;11982;50.810;4.442;2023-08-06T02:43:14;14.60;99.90
23609;DHT22;11982;50.810;4.442;2023-08-06T02:45:40;14.60;99.90
23609;DHT22;11982;50.810;4.442;2023-08-06T02:48:05;14.60;99.90
23609;DHT22;11982;50.810;4.442;2023-08-06T02:50:37;14.70;99.90
23609;DHT22;11982;50.810;4.442;2023-08-06T02:53:02;14.70;99.90
23609;DHT22;11982;50.810;4.442;2023-08-06T02:55:28;14.60;99.90
23609;DHT22;11982;50.810;4.442;2023-08-06T02:57:54;14.60;99.90
23609;DHT22;11982;50.810;4.442;2023-08-06T03:00:19;14.60;99.90
23609;DHT22;11982;50.810;4.442;2023-08-06T03:02:45;14.70;99.90
23609;DHT22;11982;50.810;4.442;2023-08-06T03:05:11;14.60;99.90
23609;DHT22;11982;50.810;4.442;2023-08-06T03:07:36;14.50;99.90
23609;DHT22;11982;50.810;4.442;2023-08-06T03:10:03;14.60;99.90
23609;DHT22;11982;50.810;4.442;2023-08-06T03:12:29;14.60;99.90
23609;DHT22;11982;50.810;4.442;2023-08-06T03:14:54;14.50;99.90
23609;DHT22;11982;50.810;4.442;2023-08-06T03:17:20;14.60;99.90
23609;DHT22;11982;50.810;4.442;2023-08-06T03:19:46;14.60;99.90
23609;DHT22;11982;50.810;4.442;2023-08-06T03:22:11;14.60;99.90
23609;DHT22;11982;50.810;4.442;2023-08-06T03:24:37;14.60;99.90
23609;DHT22;11982;50.810;4.442;2023-08-06T03:27:03;14.60;99.90
23609;DHT22;11982;50.810;4.442;2023-08-06T03:29:28;14.60;99.90
23609;DHT22;11982;50.810;4.442;2023-08-06T03:31:54;14.60;99.90
23609;DHT22;11982;50.810;4.442;2023-08-06T03:34:20;14.60;99.90
23609;DHT22;11982;50.810;4.442;2023-08-06T03:36:45;14.60;99.90
23609;DHT22;11982;50.810;4.442;2023-08-06T03:39:11;14.60;99.90
23609;DHT22;11982;50.810;4.442;2023-08-06T03:41:37;14.70;99.90
23609;DHT22;11982;50.810;4.442;2023-08-06T03:44:02;14.80;99.90
23609;DHT22;11982;50.810;4.442;2023-08-06T03:46:29;14.90;99.90
23609;DHT22;11982;50.810;4.442;2023-08-06T03:48:57;14.90;99.90
23609;DHT22;11982;50.810;4.442;2023-08-06T03:51:23;14.90;99.90
23609;DHT22;11982;50.810;4.442;2023-08-06T03:53:48;14.90;99.90
23609;DHT22;11982;50.810;4.442;2023-08-06T03:56:14;14.90;99.90
23609;DHT22;11982;50.810;4.442;2023-08-06T03:58:40;14.80;99.90
23609;DHT22;11982;50.810;4.442;2023-08-06T04:01:05;14.80;99.90
23609;DHT22;11982;50.810;4.442;2023-08-06T04:03:31;14.80;99.90
23609;DHT22;11982;50.810;4.442;2023-08-06T04:05:57;14.80;99.90
23609;DHT22;11982;50.810;4.442;2023-08-06T04:08:22;14.80;99.90
23609;DHT22;11982;50.810;4.442;2023-08-06T04:10:52;14.80;99.90
23609;DHT22;11982;50.810;4.442;2023-08-06T04:13:18;14.80;99.90
23609;DHT22;11982;50.810;4.442;2023-08-06T04:15:44;14.80;99.90
23609;DHT22;11982;50.810;4.442;2023-08-06T04:18:10;14.70;99.90
23609;DHT22;11982;50.810;4.442;2023-08-06T04:20:45;14.70;99.90
23609;DHT22;11982;50.810;4.442;2023-08-06T04:23:11;14.60;99.90
23609;DHT22;11982;50.810;4.442;2023-08-06T04:25:37;14.50;99.90
23609;DHT22;11982;50.810;4.442;2023-08-06T04:28:03;14.40;99.90
23609;DHT22;11982;50.810;4.442;2023-08-06T04:30:28;14.30;99.90
23609;DHT22;11982;50.810;4.442;2023-08-06T04:32:56;14.30;99.90
23609;DHT22;11982;50.810;4.442;2023-08-06T04:35:21;14.30;99.90
23609;DHT22;11982;50.810;4.442;2023-08-06T04:37:47;14.30;99.90
23609;DHT22;11982;50.810;4.442;2023-08-06T04:40:13;14.20;99.90
23609;DHT22;11982;50.810;4.442;2023-08-06T04:42:38;14.10;99.90
23609;DHT22;11982;50.810;4.442;2023-08-06T04:45:04;14.00;99.90
23609;DHT22;11982;50.810;4.442;2023-08-06T04:47:30;13.90;99.90
23609;DHT22;11982;50.810;4.442;2023-08-06T04:49:56;13.80;99.90
23609;DHT22;11982;50.810;4.442;2023-08-06T04:52:22;13.70;99.90
23609;DHT22;11982;50.810;4.442;2023-08-06T04:54:47;13.70;99.90
23609;DHT22;11982;50.810;4.442;2023-08-06T04:57:13;13.60;99.90
23609;DHT22;11982;50.810;4.442;2023-08-06T04:59:39;13.60;99.90
23609;DHT22;11982;50.810;4.442;2023-08-06T05:02:05;13.60;99.90
23609;DHT22;11982;50.810;4.442;2023-08-06T05:04:30;13.50;99.90
23609;DHT22;11982;50.810;4.442;2023-08-06T05:06:56;13.50;99.90
23609;DHT22;11982;50.810;4.442;2023-08-06T05:09:22;13.50;99.90
23609;DHT22;11982;50.810;4.442;2023-08-06T05:11:49;13.50;99.90
23609;DHT22;11982;50.810;4.442;2023-08-06T05:14:15;13.50;99.90
23609;DHT22;11982;50.810;4.442;2023-08-06T05:16:40;13.60;99.90
23609;DHT22;11982;50.810;4.442;2023-08-06T05:19:06;13.60;99.90
23609;DHT22;11982;50.810;4.442;2023-08-06T05:21:32;13.60;99.90
23609;DHT22;11982;50.810;4.442;2023-08-06T05:23:57;13.70;99.90
23609;DHT22;11982;50.810;4.442;2023-08-06T05:26:35;13.70;99.90
23609;DHT22;11982;50.810;4.442;2023-08-06T05:29:01;13.70;99.90
23609;DHT22;11982;50.810;4.442;2023-08-06T05:31:27;13.70;99.90
23609;DHT22;11982;50.810;4.442;2023-08-06T05:33:59;13.70;99.90
23609;DHT22;11982;50.810;4.442;2023-08-06T05:36:25;13.70;99.90
23609;DHT22;11982;50.810;4.442;2023-08-06T05:38:51;13.70;99.90
23609;DHT22;11982;50.810;4.442;2023-08-06T05:41:16;13.80;99.90
23609;DHT22;11982;50.810;4.442;2023-08-06T05:43:42;13.80;99.90
23609;DHT22;11982;50.810;4.442;2023-08-06T05:46:08;13.80;99.90
23609;DHT22;11982;50.810;4.442;2023-08-06T05:48:33;13.80;99.90
23609;DHT22;11982;50.810;4.442;2023-08-06T05:50:59;13.80;99.90
23609;DHT22;11982;50.810;4.442;2023-08-06T05:53:25;13.80;99.90
23609;DHT22;11982;50.810;4.442;2023-08-06T05:55:51;13.80;99.90
23609;DHT22;11982;50.810;4.442;2023-08-06T05:58:16;13.80;99.90
23609;DHT22;11982;50.810;4.442;2023-08-06T06:00:42;13.90;99.90
23609;DHT22;11982;50.810;4.442;2023-08-06T06:03:08;13.90;99.90
23609;DHT22;11982;50.810;4.442;2023-08-06T06:05:34;13.90;99.90
23609;DHT22;11982;50.810;4.442;2023-08-06T06:08:02;13.90;99.90
23609;DHT22;11982;50.810;4.442;2023-08-06T06:10:28;13.80;99.90
23609;DHT22;11982;50.810;4.442;2023-08-06T06:12:54;13.90;99.90
23609;DHT22;11982;50.810;4.442;2023-08-06T06:15:19;13.90;99.90
23609;DHT22;11982;50.810;4.442;2023-08-06T06:17:45;13.90;99.90
23609;DHT22;11982;50.810;4.442;2023-08-06T06:20:10;14.00;99.90
23609;DHT22;11982;50.810;4.442;2023-08-06T06:22:36;13.90;99.90
23609;DHT22;11982;50.810;4.442;2023-08-06T06:25:02;14.00;99.90
23609;DHT22;11982;50.810;4.442;2023-08-06T06:27:27;13.90;99.90
23609;DHT22;11982;50.810;4.442;2023-08-06T06:29:53;14.00;99.90
23609;DHT22;11982;50.810;4.442;2023-08-06T06:32:20;14.00;99.90
23609;DHT22;11982;50.810;4.442;2023-08-06T06:34:46;14.20;99.90
23609;DHT22;11982;50.810;4.442;2023-08-06T06:37:12;14.10;99.90
23609;DHT22;11982;50.810;4.442;2023-08-06T06:39:37;14.20;99.90
23609;DHT22;11982;50.810;4.442;2023-08-06T06:42:03;14.20;99.90
23609;DHT22;11982;50.810;4.442;2023-08-06T06:44:29;14.20;99.90
23609;DHT22;11982;50.810;4.442;2023-08-06T06:46:54;14.20;99.90
23609;DHT22;11982;50.810;4.442;2023-08-06T06:49:20;14.20;99.90
23609;DHT22;11982;50.810;4.442;2023-08-06T06:51:46;14.20;99.90
23609;DHT22;11982;50.810;4.442;2023-08-06T06:54:11;14.10;99.90
23609;DHT22;11982;50.810;4.442;2023-08-06T06:56:37;14.10;99.90
23609;DHT22;11982;50.810;4.442;2023-08-06T06:59:03;14.00;99.90
23609;DHT22;11982;50.810;4.442;2023-08-06T07:01:29;14.10;99.90
23609;DHT22;11982;50.810;4.442;2023-08-06T07:03:54;14.10;99.90
23609;DHT22;11982;50.810;4.442;2023-08-06T07:06:20;14.10;99.90
23609;DHT22;11982;50.810;4.442;2023-08-06T07:08:46;14.00;99.90
23609;DHT22;11982;50.810;4.442;2023-08-06T07:11:11;14.00;99.90
23609;DHT22;11982;50.810;4.442;2023-08-06T07:13:37;13.90;99.90
23609;DHT22;11982;50.810;4.442;2023-08-06T07:16:03;14.00;99.90
23609;DHT22;11982;50.810;4.442;2023-08-06T07:18:29;14.00;99.90
23609;DHT22;11982;50.810;4.442;2023-08-06T07:20:55;14.00;99.90
23609;DHT22;11982;50.810;4.442;2023-08-06T07:23:22;14.10;99.90
23609;DHT22;11982;50.810;4.442;2023-08-06T07:25:48;14.10;99.90
23609;DHT22;11982;50.810;4.442;2023-08-06T07:28:14;14.10;99.90
23609;DHT22;11982;50.810;4.442;2023-08-06T07:30:41;14.10;99.90
23609;DHT22;11982;50.810;4.442;2023-08-06T07:33:07;14.10;99.90
23609;DHT22;11982;50.810;4.442;2023-08-06T07:35:33;14.10;99.90
23609;DHT22;11982;50.810;4.442;2023-08-06T07:37:59;14.10;99.90
23609;DHT22;11982;50.810;4.442;2023-08-06T07:40:25;14.00;99.90
23609;DHT22;11982;50.810;4.442;2023-08-06T07:42:51;14.10;99.90
23609;DHT22;11982;50.810;4.442;2023-08-06T07:45:16;14.00;99.90
23609;DHT22;11982;50.810;4.442;2023-08-06T07:47:42;14.30;99.90
23609;DHT22;11982;50.810;4.442;2023-08-06T07:50:09;14.40;99.90
23609;DHT22;11982;50.810;4.442;2023-08-06T07:52:35;14.40;99.90
23609;DHT22;11982;50.810;4.442;2023-08-06T07:55:01;14.60;99.90
23609;DHT22;11982;50.810;4.442;2023-08-06T07:57:30;14.80;99.90
23609;DHT22;11982;50.810;4.442;2023-08-06T07:59:56;15.00;99.90
23609;DHT22;11982;50.810;4.442;2023-08-06T08:02:22;15.00;99.90
23609;DHT22;11982;50.810;4.442;2023-08-06T08:04:48;15.00;99.90
23609;DHT22;11982;50.810;4.442;2023-08-06T08:07:14;15.00;99.90
23609;DHT22;11982;50.810;4.442;2023-08-06T08:09:40;15.00;99.90
23609;DHT22;11982;50.810;4.442;2023-08-06T08:12:06;15.20;99.90
23609;DHT22;11982;50.810;4.442;2023-08-06T08:14:31;15.30;99.90
23609;DHT22;11982;50.810;4.442;2023-08-06T08:17:02;15.40;99.90
23609;DHT22;11982;50.810;4.442;2023-08-06T08:19:29;15.40;99.90
23609;DHT22;11982;50.810;4.442;2023-08-06T08:21:55;15.50;99.90
23609;DHT22;11982;50.810;4.442;2023-08-06T08:24:21;15.70;99.90
23609;DHT22;11982;50.810;4.442;2023-08-06T08:26:50;15.60;99.90
23609;DHT22;11982;50.810;4.442;2023-08-06T08:29:16;15.50;99.90
23609;DHT22;11982;50.810;4.442;2023-08-06T08:31:58;15.30;99.90
23609;DHT22;11982;50.810;4.442;2023-08-06T08:34:28;15.10;99.90
23609;DHT22;11982;50.810;4.442;2023-08-06T08:36:54;14.80;99.90
23609;DHT22;11982;50.810;4.442;2023-08-06T08:39:19;14.60;99.90
23609;DHT22;11982;50.810;4.442;2023-08-06T08:41:45;14.50;99.90
23609;DHT22;11982;50.810;4.442;2023-08-06T08:44:13;14.70;99.90
23609;DHT22;11982;50.810;4.442;2023-08-06T08:46:45;14.60;99.90
23609;DHT22;11982;50.810;4.442;2023-08-06T08:49:13;14.50;99.90
23609;DHT22;11982;50.810;4.442;2023-08-06T08:51:39;14.80;99.90
23609;DHT22;11982;50.810;4.442;2023-08-06T08:54:04;14.90;99.90
23609;DHT22;11982;50.810;4.442;2023-08-06T08:56:32;15.00;99.90
23609;DHT22;11982;50.810;4.442;2023-08-06T08:58:58;14.90;99.90
23609;DHT22;11982;50.810;4.442;2023-08-06T09:01:25;14.90;99.90
23609;DHT22;11982;50.810;4.442;2023-08-06T09:03:51;14.90;99.90
23609;DHT22;11982;50.810;4.442;2023-08-06T09:06:19;14.90;99.90
23609;DHT22;11982;50.810;4.442;2023-08-06T09:09:13;15.00;99.90
23609;DHT22;11982;50.810;4.442;2023-08-06T09:11:43;15.00;99.90
23609;DHT22;11982;50.810;4.442;2023-08-06T09:14:10;15.10;99.90
23609;DHT22;11982;50.810;4.442;2023-08-06T09:16:36;15.00;99.90
23609;DHT22;11982;50.810;4.442;2023-08-06T09:19:09;14.90;99.90
23609;DHT22;11982;50.810;4.442;2023-08-06T09:21:40;14.90;99.90
23609;DHT22;11982;50.810;4.442;2023-08-06T09:24:09;15.00;99.90
23609;DHT22;11982;50.810;4.442;2023-08-06T09:29:23;14.90;99.90
23609;DHT22;11982;50.810;4.442;2023-08-06T09:31:52;14.80;99.90
23609;DHT22;11982;50.810;4.442;2023-08-06T09:34:22;14.90;99.90
23609;DHT22;11982;50.810;4.442;2023-08-06T09:36:49;14.90;99.90
23609;DHT22;11982;50.810;4.442;2023-08-06T09:39:20;14.80;99.90
23609;DHT22;11982;50.810;4.442;2023-08-06T09:41:47;14.60;99.90
23609;DHT22;11982;50.810;4.442;2023-08-06T09:44:17;14.50;99.90
23609;DHT22;11982;50.810;4.442;2023-08-06T09:46:56;14.40;99.90
23609;DHT22;11982;50.810;4.442;2023-08-06T09:51:58;14.10;99.90
23609;DHT22;11982;50.810;4.442;2023-08-06T09:54:28;14.00;99.90
23609;DHT22;11982;50.810;4.442;2023-08-06T09:56:57;14.00;99.90
23609;DHT22;11982;50.810;4.442;2023-08-06T09:59:26;14.00;99.90
23609;DHT22;11982;50.810;4.442;2023-08-06T10:01:54;14.00;99.90
23609;DHT22;11982;50.810;4.442;2023-08-06T10:04:21;14.00;99.90
23609;DHT22;11982;50.810;4.442;2023-08-06T10:06:47;14.10;99.90
23609;DHT22;11982;50.810;4.442;2023-08-06T10:09:14;14.20;99.90
23609;DHT22;11982;50.810;4.442;2023-08-06T10:11:40;14.20;99.90
23609;DHT22;11982;50.810;4.442;2023-08-06T10:14:11;14.20;99.90
23609;DHT22;11982;50.810;4.442;2023-08-06T10:16:39;14.40;99.90
23609;DHT22;11982;50.810;4.442;2023-08-06T10:22:13;14.40;99.90
23609;DHT22;11982;50.810;4.442;2023-08-06T10:24:53;14.40;99.90
23609;DHT22;11982;50.810;4.442;2023-08-06T10:27:32;14.50;99.90
23609;DHT22;11982;50.810;4.442;2023-08-06T10:30:23;14.50;99.90
23609;DHT22;11982;50.810;4.442;2023-08-06T10:32:50;14.60;99.90
23609;DHT22;11982;50.810;4.442;2023-08-06T10:35:45;14.80;99.90
23609;DHT22;11982;50.810;4.442;2023-08-06T10:38:16;14.70;99.90
23609;DHT22;11982;50.810;4.442;2023-08-06T10:40:49;14.70;99.90
23609;DHT22;11982;50.810;4.442;2023-08-06T10:43:34;14.40;99.90
23609;DHT22;11982;50.810;4.442;2023-08-06T10:46:09;14.20;99.90
23609;DHT22;11982;50.810;4.442;2023-08-06T10:48:39;14.00;99.90
23609;DHT22;11982;50.810;4.442;2023-08-06T10:51:13;14.00;99.90
23609;DHT22;11982;50.810;4.442;2023-08-06T10:53:44;14.00;99.90
23609;DHT22;11982;50.810;4.442;2023-08-06T10:56:18;14.00;99.90
23609;DHT22;11982;50.810;4.442;2023-08-06T10:58:47;13.90;99.90
23609;DHT22;11982;50.810;4.442;2023-08-06T11:01:15;14.10;99.90
23609;DHT22;11982;50.810;4.442;2023-08-06T11:03:42;14.20;99.90
23609;DHT22;11982;50.810;4.442;2023-08-06T11:06:09;14.20;99.90
23609;DHT22;11982;50.810;4.442;2023-08-06T11:08:36;14.20;99.90
23609;DHT22;11982;50.810;4.442;2023-08-06T11:13:37;14.40;99.90
23609;DHT22;11982;50.810;4.442;2023-08-06T11:16:04;14.50;99.90
23609;DHT22;11982;50.810;4.442;2023-08-06T11:18:30;14.50;99.90
23609;DHT22;11982;50.810;4.442;2023-08-06T11:21:01;14.60;99.90
23609;DHT22;11982;50.810;4.442;2023-08-06T11:23:30;14.70;99.90
23609;DHT22;11982;50.810;4.442;2023-08-06T11:25:56;14.70;99.90
23609;DHT22;11982;50.810;4.442;2023-08-06T11:28:23;14.70;99.90
23609;DHT22;11982;50.810;4.442;2023-08-06T11:30:49;14.60;99.90
23609;DHT22;11982;50.810;4.442;2023-08-06T11:33:20;14.70;99.90
23609;DHT22;11982;50.810;4.442;2023-08-06T11:35:48;14.90;99.90
23609;DHT22;11982;50.810;4.442;2023-08-06T11:38:13;14.90;99.90
23609;DHT22;11982;50.810;4.442;2023-08-06T11:40:39;14.70;99.90
23609;DHT22;11982;50.810;4.442;2023-08-06T11:43:09;14.60;99.90
23609;DHT22;11982;50.810;4.442;2023-08-06T11:45:35;14.60;99.90
23609;DHT22;11982;50.810;4.442;2023-08-06T11:48:01;14.60;99.90
23609;DHT22;11982;50.810;4.442;2023-08-06T11:50:27;14.50;99.90
23609;DHT22;11982;50.810;4.442;2023-08-06T11:53:02;14.20;99.90
23609;DHT22;11982;50.810;4.442;2023-08-06T11:55:28;14.10;99.90
23609;DHT22;11982;50.810;4.442;2023-08-06T11:57:54;14.10;99.90
23609;DHT22;11982;50.810;4.442;2023-08-06T12:00:23;14.10;99.90
23609;DHT22;11982;50.810;4.442;2023-08-06T12:03:05;14.00;99.90
23609;DHT22;11982;50.810;4.442;2023-08-06T12:05:32;14.00;99.90
23609;DHT22;11982;50.810;4.442;2023-08-06T12:08:00;13.90;99.90
23609;DHT22;11982;50.810;4.442;2023-08-06T12:10:29;14.10;99.90
23609;DHT22;11982;50.810;4.442;2023-08-06T12:12:59;14.00;99.90
23609;DHT22;11982;50.810;4.442;2023-08-06T12:15:30;14.10;99.90
23609;DHT22;11982;50.810;4.442;2023-08-06T12:17:56;14.10;99.90
23609;DHT22;11982;50.810;4.442;2023-08-06T12:20:21;14.10;99.90
23609;DHT22;11982;50.810;4.442;2023-08-06T12:22:47;14.30;99.90
23609;DHT22;11982;50.810;4.442;2023-08-06T12:25:13;14.60;99.90
23609;DHT22;11982;50.810;4.442;2023-08-06T12:27:41;14.60;99.90
23609;DHT22;11982;50.810;4.442;2023-08-06T12:30:07;14.90;99.90
23609;DHT22;11982;50.810;4.442;2023-08-06T12:32:34;15.00;99.90
23609;DHT22;11982;50.810;4.442;2023-08-06T12:35:00;15.40;99.90
23609;DHT22;11982;50.810;4.442;2023-08-06T12:37:26;15.70;99.90
23609;DHT22;11982;50.810;4.442;2023-08-06T12:39:52;15.90;99.90
23609;DHT22;11982;50.810;4.442;2023-08-06T12:42:20;15.80;99.90
23609;DHT22;11982;50.810;4.442;2023-08-06T12:44:49;15.80;99.90
23609;DHT22;11982;50.810;4.442;2023-08-06T12:47:16;15.50;99.90
23609;DHT22;11982;50.810;4.442;2023-08-06T12:49:42;15.20;99.90
23609;DHT22;11982;50.810;4.442;2023-08-06T12:52:07;14.90;99.90
23609;DHT22;11982;50.810;4.442;2023-08-06T12:54:35;14.80;99.90
23609;DHT22;11982;50.810;4.442;2023-08-06T12:57:02;15.00;99.90
23609;DHT22;11982;50.810;4.442;2023-08-06T12:59:28;15.20;99.90
23609;DHT22;11982;50.810;4.442;2023-08-06T13:01:54;15.10;99.90
23609;DHT22;11982;50.810;4.442;2023-08-06T13:04:20;15.20;99.90
23609;DHT22;11982;50.810;4.442;2023-08-06T13:06:46;15.20;99.90
23609;DHT22;11982;50.810;4.442;2023-08-06T13:09:18;15.40;99.90
23609;DHT22;11982;50.810;4.442;2023-08-06T13:11:44;15.40;99.90
23609;DHT22;11982;50.810;4.442;2023-08-06T13:14:16;15.20;99.90
23609;DHT22;11982;50.810;4.442;2023-08-06T13:16:43;15.20;99.90
23609;DHT22;11982;50.810;4.442;2023-08-06T13:19:12;15.20;99.90
23609;DHT22;11982;50.810;4.442;2023-08-06T13:24:15;15.10;99.90
23609;DHT22;11982;50.810;4.442;2023-08-06T13:26:41;15.10;99.90
23609;DHT22;11982;50.810;4.442;2023-08-06T13:29:07;15.10;99.90
23609;DHT22;11982;50.810;4.442;2023-08-06T13:31:33;15.00;99.90
23609;DHT22;11982;50.810;4.442;2023-08-06T13:33:58;14.90;99.90
23609;DHT22;11982;50.810;4.442;2023-08-06T13:36:27;14.80;99.90
23609;DHT22;11982;50.810;4.442;2023-08-06T13:38:53;14.70;99.90
23609;DHT22;11982;50.810;4.442;2023-08-06T13:41:19;14.60;99.90
23609;DHT22;11982;50.810;4.442;2023-08-06T13:43:45;14.60;99.90
23609;DHT22;11982;50.810;4.442;2023-08-06T13:46:11;14.50;99.90
23609;DHT22;11982;50.810;4.442;2023-08-06T13:48:46;14.40;99.90
23609;DHT22;11982;50.810;4.442;2023-08-06T13:51:20;14.20;99.90
23609;DHT22;11982;50.810;4.442;2023-08-06T13:53:49;14.00;99.90
23609;DHT22;11982;50.810;4.442;2023-08-06T13:56:15;13.90;99.90
23609;DHT22;11982;50.810;4.442;2023-08-06T13:58:43;14.00;99.90
23609;DHT22;11982;50.810;4.442;2023-08-06T14:01:10;14.00;99.90
23609;DHT22;11982;50.810;4.442;2023-08-06T14:03:36;14.10;99.90
23609;DHT22;11982;50.810;4.442;2023-08-06T14:06:02;14.10;99.90
23609;DHT22;11982;50.810;4.442;2023-08-06T14:08:28;14.10;99.90
23609;DHT22;11982;50.810;4.442;2023-08-06T14:10:54;14.00;99.90
23609;DHT22;11982;50.810;4.442;2023-08-06T14:13:21;14.10;99.90
23609;DHT22;11982;50.810;4.442;2023-08-06T14:15:47;14.10;99.90
23609;DHT22;11982;50.810;4.442;2023-08-06T14:18:14;14.20;99.90
23609;DHT22;11982;50.810;4.442;2023-08-06T14:20:40;14.20;99.90
23609;DHT22;11982;50.810;4.442;2023-08-06T14:23:06;14.40;99.90
23609;DHT22;11982;50.810;4.442;2023-08-06T14:25:37;14.50;99.90
23609;DHT22;11982;50.810;4.442;2023-08-06T14:28:06;14.40;99.90
23609;DHT22;11982;50.810;4.442;2023-08-06T14:30:33;14.30;99.90
23609;DHT22;11982;50.810;4.442;2023-08-06T14:32:59;14.20;99.90
23609;DHT22;11982;50.810;4.442;2023-08-06T14:35:26;14.10;99.90
23609;DHT22;11982;50.810;4.442;2023-08-06T14:37:51;14.20;99.90
23609;DHT22;11982;50.810;4.442;2023-08-06T14:40:17;14.10;99.90
23609;DHT22;11982;50.810;4.442;2023-08-06T14:42:43;14.00;99.90
23609;DHT22;11982;50.810;4.442;2023-08-06T14:45:09;14.00;99.90
23609;DHT22;11982;50.810;4.442;2023-08-06T14:47:35;14.00;99.90
23609;DHT22;11982;50.810;4.442;2023-08-06T14:50:00;14.00;99.90
23609;DHT22;11982;50.810;4.442;2023-08-06T14:52:26;13.90;99.90
23609;DHT22;11982;50.810;4.442;2023-08-06T14:54:52;14.10;99.90
23609;DHT22;11982;50.810;4.442;2023-08-06T14:57:21;14.10;99.90
23609;DHT22;11982;50.810;4.442;2023-08-06T14:59:48;14.10;99.90
23609;DHT22;11982;50.810;4.442;2023-08-06T15:02:14;14.20;99.90
23609;DHT22;11982;50.810;4.442;2023-08-06T15:04:40;14.40;99.90
23609;DHT22;11982;50.810;4.442;2023-08-06T15:07:05;14.50;99.90
23609;DHT22;11982;50.810;4.442;2023-08-06T15:09:31;14.50;99.90
23609;DHT22;11982;50.810;4.442;2023-08-06T15:11:57;14.50;99.90
23609;DHT22;11982;50.810;4.442;2023-08-06T15:14:23;14.50;99.90
23609;DHT22;11982;50.810;4.442;2023-08-06T15:16:48;14.50;99.90
23609;DHT22;11982;50.810;4.442;2023-08-06T15:19:16;14.50;99.90
23609;DHT22;11982;50.810;4.442;2023-08-06T15:21:42;14.30;99.90
23609;DHT22;11982;50.810;4.442;2023-08-06T15:24:09;14.30;99.90
23609;DHT22;11982;50.810;4.442;2023-08-06T15:26:34;14.40;99.90
23609;DHT22;11982;50.810;4.442;2023-08-06T15:29:00;14.40;99.90
23609;DHT22;11982;50.810;4.442;2023-08-06T15:31:38;14.40;99.90
23609;DHT22;11982;50.810;4.442;2023-08-06T15:34:06;14.40;99.90
23609;DHT22;11982;50.810;4.442;2023-08-06T15:36:33;14.00;99.90
23609;DHT22;11982;50.810;4.442;2023-08-06T15:38:59;13.80;99.90
23609;DHT22;11982;50.810;4.442;2023-08-06T15:41:25;13.80;99.90
23609;DHT22;11982;50.810;4.442;2023-08-06T15:43:51;13.90;99.90
23609;DHT22;11982;50.810;4.442;2023-08-06T15:46:16;14.00;99.90
23609;DHT22;11982;50.810;4.442;2023-08-06T15:48:42;14.20;99.90